createdAt,value
2022-10-11T00:01:01.349Z,80.05
2022-10-11T00:03:36.320Z,80.45
2022-10-11T00:06:06.298Z,80.52
2022-10-11T00:08:34.923Z,80.47
2022-10-11T00:11:06.850Z,80.25
2022-10-11T00:13:35.907Z,80.44
2022-10-11T00:16:11.585Z,80.73
2022-10-11T00:18:40.057Z,80.98
2022-10-11T00:21:12.131Z,81.11
2022-10-11T00:23:41.340Z,81.04
2022-10-11T00:26:10.868Z,81.00
2022-10-11T00:28:39.986Z,81.04
2022-10-11T00:31:16.318Z,81.29
2022-10-11T00:33:44.215Z,81.60
2022-10-11T00:36:14.747Z,81.79
2022-10-11T00:38:46.147Z,81.53
2022-10-11T00:41:15.623Z,81.38
2022-10-11T00:43:44.923Z,81.32
2022-10-11T00:46:18.716Z,81.52
2022-10-11T00:48:53.762Z,81.67
2022-10-11T00:54:37.206Z,81.73
2022-10-11T00:57:10.838Z,81.68
2022-10-11T00:59:48.198Z,81.70
2022-10-11T01:02:18.327Z,81.78
2022-10-11T01:04:46.815Z,81.81
2022-10-11T01:07:15.189Z,81.98
2022-10-11T01:09:42.779Z,82.09
2022-10-11T01:12:23.406Z,81.94
2022-10-11T01:15:15.138Z,82.17
2022-10-11T01:17:59.382Z,82.26
2022-10-11T01:20:35.517Z,82.19
2022-10-11T01:23:53.315Z,82.21
2022-10-11T01:26:42.203Z,82.45
2022-10-11T01:30:04.299Z,82.47
2022-10-11T01:32:47.521Z,82.50
2022-10-11T01:35:55.451Z,83.04
2022-10-11T01:38:42.814Z,82.76
2022-10-11T01:41:21.662Z,82.52
2022-10-11T01:43:53.774Z,82.57
2022-10-11T01:46:22.072Z,82.73
2022-10-11T01:49:00.357Z,82.80
2022-10-11T01:51:35.845Z,82.67
2022-10-11T01:58:05.131Z,82.95
2022-10-11T02:00:55.253Z,82.96
2022-10-11T02:03:57.174Z,82.90
2022-10-11T02:06:46.265Z,82.95
2022-10-11T02:09:34.023Z,83.30
2022-10-11T02:12:14.663Z,83.24
2022-10-11T02:14:49.473Z,83.09
2022-10-11T02:17:24.600Z,83.12
2022-10-11T02:19:58.394Z,83.35
2022-10-11T02:22:34.385Z,83.48
2022-10-11T02:25:08.986Z,83.69
2022-10-11T02:27:40.601Z,83.57
2022-10-11T02:30:10.927Z,83.55
2022-10-11T02:32:43.442Z,83.58
2022-10-11T02:35:12.651Z,83.68
2022-10-11T02:38:11.131Z,83.46
2022-10-11T02:40:47.836Z,83.77
2022-10-11T02:43:28.268Z,83.79
2022-10-11T02:46:01.431Z,83.65
2022-10-11T02:48:31.963Z,83.60
2022-10-11T02:50:59.551Z,83.64
2022-10-11T02:53:27.255Z,83.77
2022-10-11T02:55:56.019Z,83.77
2022-10-11T02:58:25.458Z,83.99
2022-10-11T03:00:53.184Z,84.08
2022-10-11T03:03:20.818Z,84.05
2022-10-11T03:05:49.077Z,84.10
2022-10-11T03:08:17.419Z,84.05
2022-10-11T03:10:45.540Z,84.28
2022-10-11T03:13:17.906Z,84.39
2022-10-11T03:16:02.400Z,84.25
2022-10-11T03:18:31.616Z,84.13
2022-10-11T03:20:59.662Z,84.28
2022-10-11T03:23:27.540Z,84.45
2022-10-11T03:25:55.496Z,84.64
2022-10-11T03:28:23.236Z,84.65
2022-10-11T03:30:51.895Z,84.27
2022-10-11T03:33:20.123Z,84.24
2022-10-11T03:35:48.935Z,84.43
2022-10-11T03:38:20.982Z,84.67
2022-10-11T03:40:49.339Z,84.69
2022-10-11T03:43:18.080Z,84.42
2022-10-11T03:45:45.941Z,84.51
2022-10-11T03:48:13.500Z,84.75
2022-10-11T03:50:41.051Z,84.80
2022-10-11T03:53:09.099Z,84.52
2022-10-11T03:55:40.291Z,84.29
2022-10-11T03:58:08.362Z,84.31
2022-10-11T04:00:36.760Z,84.26
2022-10-11T04:03:04.461Z,84.24
2022-10-11T04:05:32.153Z,84.17
2022-10-11T04:07:59.745Z,84.42
2022-10-11T04:10:27.482Z,84.70
2022-10-11T04:12:55.025Z,84.52
2022-10-11T04:15:23.144Z,84.47
2022-10-11T04:17:50.809Z,84.37
2022-10-11T04:20:18.610Z,84.20
2022-10-11T04:22:46.233Z,84.48
2022-10-11T04:25:14.095Z,84.44
2022-10-11T04:27:42.063Z,84.29
2022-10-11T04:30:11.226Z,84.63
2022-10-11T04:32:38.932Z,84.54
2022-10-11T04:35:06.909Z,84.54
2022-10-11T04:37:34.726Z,84.66
2022-10-11T04:40:03.362Z,84.76
2022-10-11T04:42:30.930Z,84.74
2022-10-11T04:44:58.617Z,84.49
2022-10-11T04:47:26.545Z,84.57
2022-10-11T04:49:54.196Z,84.70
2022-10-11T04:52:25.564Z,84.74
2022-10-11T04:54:53.720Z,84.70
2022-10-11T04:57:21.338Z,84.65
2022-10-11T04:59:50.355Z,84.59
2022-10-11T05:02:18.360Z,84.42
2022-10-11T05:04:46.203Z,84.55
2022-10-11T05:07:13.960Z,84.81
2022-10-11T05:09:41.608Z,84.86
2022-10-11T05:12:10.010Z,84.86
2022-10-11T05:14:37.639Z,84.87
2022-10-11T05:17:05.856Z,84.89
2022-10-11T05:19:33.524Z,85.00
2022-10-11T05:22:01.096Z,85.05
2022-10-11T05:24:28.751Z,85.20
2022-10-11T05:27:00.890Z,85.37
2022-10-11T05:29:30.873Z,85.25
2022-10-11T05:31:58.547Z,85.35
2022-10-11T05:34:26.166Z,85.46
2022-10-11T05:36:53.939Z,85.28
2022-10-11T05:39:21.578Z,85.13
2022-10-11T05:41:49.191Z,85.18
2022-10-11T05:44:16.773Z,85.24
2022-10-11T05:46:44.415Z,85.51
2022-10-11T05:49:12.224Z,85.11
2022-10-11T05:51:40.338Z,85.15
2022-10-11T05:54:07.926Z,85.11
2022-10-11T05:56:35.621Z,85.02
2022-10-11T05:59:05.013Z,85.16
2022-10-11T06:01:32.788Z,85.21
2022-10-11T06:04:00.486Z,85.11
2022-10-11T06:06:28.358Z,85.26
2022-10-11T06:08:55.996Z,85.25
2022-10-11T06:11:27.292Z,85.07
2022-10-11T06:13:58.165Z,85.23
2022-10-11T06:16:26.829Z,85.25
2022-10-11T06:18:55.767Z,85.18
2022-10-11T06:21:24.726Z,85.35
2022-10-11T06:23:58.260Z,85.37
2022-10-11T06:26:29.909Z,85.07
2022-10-11T06:28:59.019Z,85.12
2022-10-11T06:31:27.134Z,85.03
2022-10-11T06:33:55.329Z,85.00
2022-10-11T06:36:22.931Z,85.27
2022-10-11T06:38:55.114Z,84.94
2022-10-11T06:41:26.968Z,84.97
2022-10-11T06:43:55.280Z,85.13
2022-10-11T06:46:26.607Z,84.86
2022-10-11T06:48:56.312Z,84.83
2022-10-11T06:51:25.221Z,85.03
2022-10-11T06:53:56.827Z,85.13
2022-10-11T06:56:26.214Z,85.17
2022-10-11T06:58:55.515Z,85.33
2022-10-11T07:01:24.111Z,85.29
2022-10-11T07:03:55.825Z,85.09
2022-10-11T07:06:27.632Z,85.31
2022-10-11T07:08:55.769Z,85.36
2022-10-11T07:11:27.798Z,85.55
2022-10-11T07:13:59.419Z,85.37
2022-10-11T07:16:28.558Z,85.61
2022-10-11T07:19:01.516Z,85.64
2022-10-11T07:21:31.344Z,85.46
2022-10-11T07:24:00.273Z,85.42
2022-10-11T07:26:33.869Z,85.64
2022-10-11T07:29:09.784Z,85.68
2022-10-11T07:31:41.126Z,85.22
2022-10-11T07:34:10.598Z,85.07
2022-10-11T07:36:38.405Z,85.46
2022-10-11T07:39:08.297Z,85.29
2022-10-11T07:41:38.879Z,84.97
2022-10-11T07:44:09.560Z,84.83
2022-10-11T07:46:37.266Z,85.01
2022-10-11T07:49:04.992Z,84.97
2022-10-11T07:51:33.377Z,85.08
2022-10-11T07:54:06.148Z,85.07
2022-10-11T07:56:35.077Z,84.97
2022-10-11T07:59:05.782Z,84.78
2022-10-11T08:01:33.930Z,84.88
2022-10-11T08:04:01.661Z,84.71
2022-10-11T08:06:32.556Z,84.56
2022-10-11T08:09:01.434Z,84.46
2022-10-11T08:11:33.976Z,84.47
2022-10-11T08:14:06.246Z,84.14
2022-10-11T08:16:35.919Z,84.06
2022-10-11T08:19:03.946Z,84.04
2022-10-11T08:21:32.699Z,83.93
2022-10-11T08:24:03.633Z,83.72
2022-10-11T08:26:32.425Z,83.46
2022-10-11T08:29:05.086Z,83.56
2022-10-11T08:31:35.218Z,83.33
2022-10-11T08:34:03.895Z,83.28
2022-10-11T08:36:31.780Z,83.17
2022-10-11T08:38:59.409Z,83.23
2022-10-11T08:41:47.968Z,83.21
2022-10-11T08:45:10.182Z,83.36
2022-10-11T08:47:39.995Z,83.18
2022-10-11T08:50:20.370Z,83.29
2022-10-11T08:52:56.568Z,83.20
2022-10-11T08:55:39.978Z,83.44
2022-10-11T08:58:16.286Z,83.31
2022-10-11T09:00:48.066Z,83.07
2022-10-11T09:03:40.337Z,83.08
2022-10-11T09:06:18.563Z,82.68
2022-10-11T09:09:10.866Z,82.65
2022-10-11T09:12:08.989Z,82.51
2022-10-11T09:14:58.175Z,82.36
2022-10-11T09:18:02.929Z,82.46
2022-10-11T09:20:35.401Z,82.44
2022-10-11T09:23:20.187Z,82.39
2022-10-11T09:25:58.949Z,82.17
2022-10-11T09:29:06.684Z,81.99
2022-10-11T09:31:34.625Z,82.12
2022-10-11T09:34:15.617Z,82.31
2022-10-11T09:37:24.235Z,82.46
2022-10-11T09:40:44.752Z,81.93
2022-10-11T09:43:12.684Z,82.00
2022-10-11T09:45:49.219Z,81.93
2022-10-11T09:48:41.361Z,81.52
2022-10-11T09:51:19.569Z,81.38
2022-10-11T09:54:01.164Z,81.31
2022-10-11T09:56:30.905Z,81.06
2022-10-11T09:59:30.239Z,80.32
2022-10-11T10:02:13.368Z,80.37
2022-10-11T10:04:53.519Z,80.25
2022-10-11T10:07:22.373Z,80.60
2022-10-11T10:09:51.174Z,80.23
2022-10-11T10:12:26.006Z,79.48
2022-10-11T10:15:17.590Z,79.47
2022-10-11T10:17:51.322Z,79.17
2022-10-11T10:20:33.231Z,78.49
2022-10-11T10:23:09.959Z,78.38
2022-10-11T10:25:43.222Z,78.01
2022-10-11T10:28:27.466Z,78.13
2022-10-11T10:30:58.850Z,78.23
2022-10-11T10:33:30.926Z,77.90
2022-10-11T10:36:07.780Z,78.03
2022-10-11T10:38:52.172Z,77.52
2022-10-11T10:41:20.360Z,76.41
2022-10-11T10:43:54.969Z,74.99
2022-10-11T10:46:37.765Z,75.17
2022-10-11T10:52:20.921Z,74.72
2022-10-11T10:55:26.467Z,75.64
2022-10-11T10:58:25.613Z,75.61
2022-10-11T11:01:23.216Z,74.65
2022-10-11T11:04:33.526Z,73.81
2022-10-11T11:07:27.040Z,72.07
2022-10-11T11:10:06.996Z,71.80
2022-10-11T11:13:01.192Z,72.50
2022-10-11T11:15:45.279Z,71.65
2022-10-11T11:18:28.878Z,70.64
2022-10-11T11:21:12.769Z,70.93
2022-10-11T11:24:01.590Z,70.25
2022-10-11T11:26:44.562Z,69.97
2022-10-11T11:30:04.105Z,70.05
2022-10-11T11:33:33.309Z,69.99
2022-10-11T11:36:13.423Z,69.05
2022-10-11T11:38:58.321Z,69.27
2022-10-11T11:41:42.823Z,69.22
2022-10-11T11:44:27.462Z,69.58
2022-10-11T11:47:19.647Z,69.67
2022-10-11T11:50:23.079Z,69.95
2022-10-11T11:53:07.610Z,69.66
2022-10-11T11:55:52.699Z,69.12
2022-10-11T11:58:55.411Z,69.08
2022-10-11T12:01:46.267Z,69.38
2022-10-11T12:04:42.173Z,69.07
2022-10-11T12:07:16.676Z,68.43
2022-10-11T12:09:54.298Z,68.41
2022-10-11T12:12:36.409Z,68.40
2022-10-11T12:15:22.698Z,68.55
2022-10-11T12:17:53.388Z,68.77
2022-10-11T12:20:29.044Z,68.51
2022-10-11T12:23:05.228Z,68.07
2022-10-11T12:25:39.666Z,67.67
2022-10-11T12:28:41.738Z,65.92
2022-10-11T12:31:30.385Z,64.79
2022-10-11T12:34:01.016Z,65.28
2022-10-11T12:36:29.696Z,64.54
2022-10-11T12:39:22.772Z,64.84
2022-10-11T12:42:06.965Z,64.63
2022-10-11T12:44:34.946Z,64.89
2022-10-11T12:47:42.983Z,64.82
2022-10-11T12:50:19.766Z,64.28
2022-10-11T12:53:27.855Z,64.32
2022-10-11T12:56:39.733Z,62.80
2022-10-11T12:59:17.315Z,63.42
2022-10-11T13:01:53.356Z,64.18
2022-10-11T13:04:27.135Z,62.75
2022-10-11T13:07:06.566Z,62.65
2022-10-11T13:09:44.141Z,63.31
2022-10-11T13:12:19.473Z,63.13
2022-10-11T13:15:03.775Z,62.73
2022-10-11T13:17:38.646Z,62.49
2022-10-11T13:20:20.540Z,63.65
2022-10-11T13:22:53.292Z,62.84
2022-10-11T13:25:36.258Z,63.14
2022-10-11T13:28:08.887Z,63.26
2022-10-11T13:30:42.306Z,63.08
2022-10-11T13:33:26.727Z,62.89
2022-10-11T13:35:54.406Z,62.63
2022-10-11T13:38:34.196Z,62.43
2022-10-11T13:41:07.735Z,62.14
2022-10-11T13:43:37.099Z,61.75
2022-10-11T13:46:05.685Z,61.37
2022-10-11T13:48:40.965Z,61.49
2022-10-11T13:51:33.464Z,60.79
2022-10-11T13:54:13.594Z,60.14
2022-10-11T13:56:49.591Z,59.90
2022-10-11T13:59:28.099Z,59.73
2022-10-11T14:02:01.855Z,59.74
2022-10-11T14:04:41.109Z,58.86
2022-10-11T14:07:41.068Z,60.25
2022-10-11T14:10:21.326Z,60.58
2022-10-11T14:13:04.071Z,60.84
2022-10-11T14:15:37.395Z,61.49
2022-10-11T14:19:10.747Z,61.16
2022-10-11T14:21:47.433Z,60.81
2022-10-11T14:24:17.754Z,60.92
2022-10-11T14:26:54.833Z,60.56
2022-10-11T14:29:36.031Z,60.37
2022-10-11T14:32:14.437Z,60.27
2022-10-11T14:34:46.091Z,60.06
2022-10-11T14:37:16.885Z,60.30
2022-10-11T14:39:47.602Z,60.12
2022-10-11T14:42:15.638Z,60.21
2022-10-11T14:44:43.696Z,60.61
2022-10-11T14:47:17.137Z,61.06
2022-10-11T14:49:44.966Z,61.41
2022-10-11T14:52:13.702Z,61.04
2022-10-11T14:54:41.495Z,60.55
2022-10-11T14:57:12.692Z,61.05
2022-10-11T14:59:40.618Z,61.19
2022-10-11T15:02:11.687Z,60.75
2022-10-11T15:04:39.373Z,60.53
2022-10-11T15:07:07.193Z,60.65
2022-10-11T15:09:34.945Z,60.46
2022-10-11T15:12:02.544Z,60.57
2022-10-11T15:14:30.166Z,60.27
2022-10-11T15:16:57.752Z,60.33
2022-10-11T15:19:25.654Z,60.19
2022-10-11T15:21:53.735Z,60.08
2022-10-11T15:24:21.417Z,60.16
2022-10-11T15:26:49.741Z,59.98
2022-10-11T15:29:17.965Z,60.18
2022-10-11T15:31:46.228Z,59.40
2022-10-11T15:34:14.236Z,59.47
2022-10-11T15:36:42.647Z,59.34
2022-10-11T15:39:37.157Z,59.35
2022-10-11T15:42:05.218Z,59.11
2022-10-11T15:44:32.803Z,58.79
2022-10-11T15:47:00.433Z,58.88
2022-10-11T15:49:28.098Z,58.55
2022-10-11T15:51:55.678Z,58.46
2022-10-11T15:54:23.358Z,58.26
2022-10-11T15:56:50.997Z,58.62
2022-10-11T15:59:18.644Z,59.15
2022-10-11T16:01:46.933Z,58.94
2022-10-11T16:04:14.624Z,58.72
2022-10-11T16:06:42.249Z,58.80
2022-10-11T16:09:09.915Z,59.49
2022-10-11T16:11:37.567Z,58.99
2022-10-11T16:14:05.362Z,59.78
2022-10-11T16:16:33.008Z,59.81
2022-10-11T16:19:00.567Z,59.98
2022-10-11T16:21:28.230Z,59.69
2022-10-11T16:23:55.952Z,60.19
2022-10-11T16:26:23.690Z,61.21
2022-10-11T16:28:51.364Z,60.53
2022-10-11T16:31:20.961Z,60.48
2022-10-11T16:33:50.427Z,60.63
2022-10-11T16:36:32.107Z,61.00
2022-10-11T16:39:02.223Z,62.04
2022-10-11T16:41:29.835Z,62.18
2022-10-11T16:43:57.547Z,62.86
2022-10-11T16:46:25.429Z,63.23
2022-10-11T16:48:58.417Z,63.95
2022-10-11T16:51:26.229Z,64.87
2022-10-11T16:53:53.824Z,65.03
2022-10-11T16:56:24.161Z,65.74
2022-10-11T16:58:54.093Z,66.04
2022-10-11T17:01:22.583Z,66.31
2022-10-11T17:03:51.368Z,67.05
2022-10-11T17:06:20.295Z,67.22
2022-10-11T17:08:47.974Z,67.56
2022-10-11T17:11:21.592Z,67.95
2022-10-11T17:13:53.432Z,68.04
2022-10-11T17:16:22.614Z,68.19
2022-10-11T17:18:50.590Z,68.35
2022-10-11T17:21:21.317Z,68.53
2022-10-11T17:23:49.414Z,68.89
2022-10-11T17:26:24.840Z,69.12
2022-10-11T17:28:57.672Z,69.39
2022-10-11T17:31:26.827Z,69.68
2022-10-11T17:33:57.286Z,69.83
2022-10-11T17:36:35.786Z,70.24
2022-10-11T17:39:08.789Z,70.41
2022-10-11T17:41:37.143Z,70.47
2022-10-11T17:44:05.086Z,70.87
2022-10-11T17:46:33.490Z,71.30
2022-10-11T17:49:04.934Z,71.69
2022-10-11T17:51:35.630Z,72.05
2022-10-11T17:54:04.459Z,72.03
2022-10-11T17:56:37.728Z,71.97
2022-10-11T17:59:07.364Z,71.99
2022-10-11T18:01:35.759Z,72.12
2022-10-11T18:04:05.936Z,72.36
2022-10-11T18:06:39.531Z,72.64
2022-10-11T18:09:07.367Z,72.63
2022-10-11T18:11:35.051Z,72.80
2022-10-11T18:14:04.459Z,72.92
2022-10-11T18:16:32.579Z,73.39
2022-10-11T18:19:03.783Z,74.02
2022-10-11T18:21:34.693Z,74.26
2022-10-11T18:24:07.638Z,74.50
2022-10-11T18:26:35.328Z,74.94
2022-10-11T18:29:04.959Z,75.18
2022-10-11T18:31:35.087Z,75.30
2022-10-11T18:34:05.511Z,75.37
2022-10-11T18:36:33.336Z,75.62
2022-10-11T18:39:06.418Z,75.44
2022-10-11T18:41:35.735Z,75.36
2022-10-11T18:44:08.651Z,75.45
2022-10-11T18:46:36.615Z,75.62
2022-10-11T18:49:04.638Z,75.80
2022-10-11T18:51:37.219Z,76.09
2022-10-11T18:54:07.295Z,76.19
2022-10-11T18:56:37.186Z,76.30
2022-10-11T18:59:07.565Z,76.68
2022-10-11T19:01:42.549Z,76.96
2022-10-11T19:04:15.824Z,77.20
2022-10-11T19:06:47.799Z,77.02
2022-10-11T19:09:23.197Z,77.42
2022-10-11T19:11:54.518Z,77.76
2022-10-11T19:14:26.027Z,77.84
2022-10-11T19:16:54.844Z,77.94
2022-10-11T19:19:27.330Z,77.86
2022-10-11T19:21:55.668Z,78.16
2022-10-11T19:24:28.338Z,78.32
2022-10-11T19:27:02.366Z,78.40
2022-10-11T19:29:32.315Z,78.35
2022-10-11T19:32:03.842Z,78.63
2022-10-11T19:34:32.681Z,78.74
2022-10-11T19:37:03.091Z,78.94
2022-10-11T19:39:31.516Z,79.13
2022-10-11T19:42:00.321Z,79.15
2022-10-11T19:44:28.870Z,79.20
2022-10-11T19:46:57.525Z,79.26
2022-10-11T19:49:27.178Z,79.24
2022-10-11T19:51:55.579Z,79.38
2022-10-11T19:54:24.591Z,79.35
2022-10-11T19:56:52.658Z,79.37
2022-10-11T19:59:20.341Z,79.64
2022-10-11T20:01:52.313Z,79.84
2022-10-11T20:04:50.605Z,79.97
2022-10-11T20:07:10.368Z,80.03
2022-10-11T20:09:38.142Z,79.97
2022-10-11T20:12:06.421Z,80.09
2022-10-11T20:14:34.011Z,80.07
2022-10-11T20:17:01.665Z,80.00
2022-10-11T20:19:31.207Z,80.21
2022-10-11T20:22:00.598Z,80.30
2022-10-11T20:24:32.943Z,80.53
2022-10-11T20:27:04.439Z,80.53
2022-10-11T20:29:32.347Z,80.71
2022-10-11T20:32:00.059Z,80.88
2022-10-11T20:34:28.044Z,80.44
2022-10-11T20:36:56.271Z,80.52
2022-10-11T20:39:23.998Z,80.80
2022-10-11T20:41:51.589Z,80.93
2022-10-11T20:44:19.270Z,81.20
2022-10-11T20:46:46.861Z,81.12
2022-10-11T20:49:14.737Z,81.02
2022-10-11T20:51:42.736Z,81.18
2022-10-11T20:54:11.468Z,81.45
2022-10-11T20:56:40.074Z,81.47
2022-10-11T20:59:07.918Z,81.51
2022-10-11T21:01:39.760Z,81.61
2022-10-11T21:04:16.525Z,81.61
2022-10-11T21:06:44.283Z,81.75
2022-10-11T21:09:15.459Z,81.77
2022-10-11T21:11:45.228Z,81.87
2022-10-11T21:14:13.279Z,81.88
2022-10-11T21:16:40.983Z,81.85
2022-10-11T21:19:15.083Z,82.00
2022-10-11T21:21:48.363Z,81.91
2022-10-11T21:24:18.853Z,82.02
2022-10-11T21:26:46.655Z,82.05
2022-10-11T21:29:14.862Z,82.05
2022-10-11T21:31:42.432Z,82.26
2022-10-11T21:34:10.078Z,82.33
2022-10-11T21:36:37.929Z,82.08
2022-10-11T21:39:05.675Z,82.12
2022-10-11T21:41:34.076Z,82.37
2022-10-11T21:44:02.235Z,82.53
2022-10-11T21:49:19.977Z,82.18
2022-10-11T21:51:48.374Z,82.44
2022-10-11T21:54:16.392Z,82.37
2022-10-11T21:56:44.038Z,82.42
2022-10-11T21:59:12.590Z,82.31
2022-10-11T22:01:41.931Z,82.56
2022-10-11T22:04:11.113Z,82.59
2022-10-11T22:06:39.444Z,82.59
2022-10-11T22:09:08.581Z,82.62
2022-10-11T22:11:36.486Z,82.81
2022-10-11T22:14:04.581Z,82.79
2022-10-11T22:16:34.796Z,82.98
2022-10-11T22:19:03.020Z,82.79
2022-10-11T22:21:30.927Z,82.57
2022-10-11T22:23:58.557Z,82.48
2022-10-11T22:26:30.788Z,82.62
2022-10-11T22:29:00.145Z,82.72
2022-10-11T22:31:30.032Z,82.76
2022-10-11T22:34:00.813Z,83.02
2022-10-11T22:36:33.779Z,82.94
2022-10-11T22:39:02.729Z,82.74
2022-10-11T22:41:30.280Z,82.85
2022-10-11T22:43:58.108Z,83.03
2022-10-11T22:46:25.771Z,83.03
2022-10-11T22:48:53.486Z,83.00
2022-10-11T22:51:21.073Z,83.01
2022-10-11T22:53:49.265Z,83.10
2022-10-11T22:56:16.913Z,83.28
2022-10-11T22:58:44.549Z,83.30
2022-10-11T23:01:16.231Z,83.30
2022-10-11T23:03:48.340Z,83.46
2022-10-11T23:06:17.250Z,83.46
2022-10-11T23:08:44.855Z,83.31
2022-10-11T23:11:12.595Z,83.19
2022-10-11T23:13:40.389Z,83.44
2022-10-11T23:16:11.473Z,83.33
2022-10-11T23:18:39.685Z,83.28
2022-10-11T23:21:08.132Z,83.43
2022-10-11T23:23:36.359Z,83.59
2022-10-11T23:26:13.123Z,83.74
2022-10-11T23:28:42.539Z,83.73
2022-10-11T23:31:16.942Z,83.64
2022-10-11T23:33:46.620Z,83.65
2022-10-11T23:36:21.496Z,83.58
2022-10-11T23:38:55.103Z,83.53
2022-10-11T23:41:27.472Z,83.54
2022-10-11T23:43:56.406Z,83.73
2022-10-11T23:46:24.551Z,83.78
2022-10-11T23:48:52.167Z,83.83
2022-10-11T23:51:20.034Z,83.78
2022-10-11T23:53:47.706Z,83.92
2022-10-11T23:56:15.574Z,83.96
2022-10-11T23:58:43.409Z,83.94
